Time;durP1;ratioP1;P1;durP2;ratioP2;P2;SDS_P1;SDS_P2;PMS_P1;PMS_P2;Temp;Humidity;BMP_temperature;BMP_pressure;BME280_temperature;BME280_humidity;BME280_pressure;Samples;Min_cycle;Max_cycle;Signal;HPM_P1;HPM_P2
2021/09/25 00:01:05;;;;;;;;;17.75;16.75;;;;;15.70;77.18;101437.28;4979381;28;45523;-70
2021/09/25 00:03:30;;;;;;;;;23.25;21.00;;;;;15.72;76.97;101443.38;4992326;28;45392;-70
2021/09/25 00:05:56;;;;;;;;;21.75;16.75;;;;;15.62;76.87;101424.41;4981561;28;52014;-70
2021/09/25 00:08:21;;;;;;;;;20.75;18.25;;;;;15.65;77.12;101431.34;4983241;28;45502;-70
2021/09/25 00:10:46;;;;;;;;;18.50;16.75;;;;;15.63;77.00;101425.28;4983958;28;45460;-70
2021/09/25 00:13:12;;;;;;;;;18.75;15.75;;;;;15.63;76.74;101430.59;4994235;28;45635;-70
2021/09/25 00:15:38;;;;;;;;;21.00;19.00;;;;;15.61;76.63;101435.09;4984430;28;46205;-70
2021/09/25 00:18:04;;;;;;;;;20.00;18.00;;;;;15.60;77.02;101430.72;4983941;28;45302;-70
2021/09/25 00:20:31;;;;;;;;;19.00;17.50;;;;;15.57;77.01;101422.94;4991813;28;45651;-70
2021/09/25 00:22:56;;;;;;;;;21.25;19.00;;;;;15.55;77.25;101425.66;4995812;28;45930;-70
2021/09/25 00:25:22;;;;;;;;;16.50;15.50;;;;;15.54;76.99;101433.69;4995475;28;47288;-70
2021/09/25 00:27:48;;;;;;;;;23.75;18.50;;;;;15.52;77.76;101424.97;4991943;28;45416;-70
2021/09/25 00:30:15;;;;;;;;;18.75;18.75;;;;;15.52;77.65;101430.28;4993810;28;45520;-70
2021/09/25 00:32:40;;;;;;;;;20.50;18.25;;;;;15.51;77.72;101428.56;4989484;28;45510;-70
2021/09/25 00:35:08;;;;;;;;;19.00;17.00;;;;;15.49;77.50;101427.78;4994716;28;45450;-70
2021/09/25 00:37:33;;;;;;;;;26.00;20.00;;;;;15.46;77.31;101441.19;4994077;28;45719;-70
2021/09/25 00:39:58;;;;;;;;;21.75;19.00;;;;;15.43;77.37;101434.25;4995741;28;45467;-70
2021/09/25 00:42:24;;;;;;;;;21.25;20.00;;;;;15.43;77.45;101436.03;4995136;28;45368;-70
2021/09/25 00:44:49;;;;;;;;;20.25;18.75;;;;;15.40;77.56;101434.44;4994171;28;46265;-70
2021/09/25 00:47:15;;;;;;;;;18.00;16.25;;;;;15.37;77.62;101427.47;4987077;28;45401;-70
2021/09/25 00:49:41;;;;;;;;;19.50;17.25;;;;;15.38;77.77;101430.97;4994458;28;45503;-69
2021/09/25 00:52:07;;;;;;;;;22.25;17.75;;;;;15.37;77.96;101435.44;4987853;28;45535;-70
2021/09/25 00:54:32;;;;;;;;;20.00;19.25;;;;;15.33;78.01;101427.72;4994660;28;46462;-70
2021/09/25 00:56:59;;;;;;;;;21.00;19.00;;;;;15.31;78.02;101432.25;4990034;28;45455;-70
2021/09/25 00:59:24;;;;;;;;;21.50;17.25;;;;;15.28;78.03;101424.44;4984781;28;45466;-70
2021/09/25 01:01:51;;;;;;;;;23.25;21.25;;;;;15.27;78.25;101433.34;4987926;28;46846;-70
2021/09/25 01:04:16;;;;;;;;;19.00;18.75;;;;;15.30;77.94;101438.47;4981171;28;46896;-70
2021/09/25 01:06:42;;;;;;;;;26.50;19.50;;;;;15.26;78.18;101437.78;4984376;28;45535;-70
2021/09/25 01:09:07;;;;;;;;;21.00;18.25;;;;;15.27;78.52;101439.47;4990657;28;45435;-70
2021/09/25 01:11:33;;;;;;;;;18.75;17.75;;;;;15.28;77.98;101438.53;4989255;28;45549;-70
2021/09/25 01:13:59;;;;;;;;;18.50;15.25;;;;;15.23;78.31;101432.63;4988485;28;46527;-69
2021/09/25 01:16:25;;;;;;;;;20.25;17.00;;;;;15.22;78.38;101436.22;4991431;28;45266;-70
2021/09/25 01:18:51;;;;;;;;;22.25;22.00;;;;;15.20;78.29;101434.59;4985480;28;45583;-70
2021/09/25 01:21:17;;;;;;;;;21.00;18.25;;;;;15.17;78.38;101427.66;4981011;28;45373;-70
2021/09/25 01:23:43;;;;;;;;;25.50;20.75;;;;;15.14;78.47;101425.19;4983535;28;47156;-70
2021/09/25 01:26:10;;;;;;;;;20.25;18.50;;;;;15.08;78.37;101413.06;4978612;28;45417;-70
2021/09/25 01:28:37;;;;;;;;;20.50;18.75;;;;;15.09;78.51;101412.16;4979503;28;45479;-70
2021/09/25 01:31:04;;;;;;;;;20.75;19.75;;;;;15.07;78.54;101408.72;4994117;28;45435;-70
2021/09/25 01:33:33;;;;;;;;;27.50;20.00;;;;;15.05;78.04;101418.53;4989248;28;45606;-70
2021/09/25 01:35:59;;;;;;;;;21.75;18.00;;;;;15.02;78.05;101408.09;4989243;28;45551;-70
2021/09/25 01:38:24;;;;;;;;;24.75;19.50;;;;;15.02;78.07;101412.53;4985528;28;45876;-70
2021/09/25 01:40:50;;;;;;;;;22.00;17.50;;;;;14.97;78.61;101410.13;4988921;28;45523;-70
2021/09/25 01:43:17;;;;;;;;;22.75;19.50;;;;;14.93;78.44;101399.75;4995164;28;46438;-70
2021/09/25 01:45:44;;;;;;;;;20.50;16.50;;;;;14.91;78.49;101399.84;4990792;28;45795;-70
2021/09/25 01:48:10;;;;;;;;;21.50;20.00;;;;;14.85;77.93;101397.53;4993987;28;45295;-70
2021/09/25 01:50:36;;;;;;;;;21.25;16.50;;;;;14.83;78.20;101397.59;4992692;28;45683;-69
2021/09/25 01:53:02;;;;;;;;;23.75;19.50;;;;;14.86;78.30;101397.44;4992149;28;46561;-70
2021/09/25 01:55:27;;;;;;;;;26.75;23.75;;;;;14.84;78.08;101391.38;4993436;28;45602;-69
2021/09/25 01:57:52;;;;;;;;;23.25;18.25;;;;;14.83;78.53;101400.25;4989369;28;45598;-70
2021/09/25 02:00:19;;;;;;;;;24.50;18.00;;;;;14.84;78.47;101394.03;4983977;28;45473;-70
2021/09/25 02:02:45;;;;;;;;;18.75;16.00;;;;;14.78;78.56;101391.69;4990454;28;47472;-70
2021/09/25 02:05:15;;;;;;;;;22.75;19.50;;;;;14.79;78.48;101389.91;4991274;28;45404;-70
2021/09/25 02:07:40;;;;;;;;;24.25;20.50;;;;;14.75;78.53;101383.03;4992686;28;45488;-70
2021/09/25 02:10:06;;;;;;;;;20.25;17.50;;;;;14.72;78.56;101385.81;4983908;28;45423;-70
2021/09/25 02:12:31;;;;;;;;;27.50;18.00;;;;;14.71;78.08;101384.13;4982329;28;46765;-70
2021/09/25 02:14:56;;;;;;;;;19.25;19.25;;;;;14.68;78.42;101379.84;4982228;28;45565;-70
2021/09/25 02:17:22;;;;;;;;;20.50;17.75;;;;;14.66;78.37;101376.41;4987512;28;45519;-70
2021/09/25 02:19:48;;;;;;;;;17.25;16.75;;;;;14.64;78.36;101383.56;4991693;28;45472;-69
2021/09/25 02:22:15;;;;;;;;;22.00;18.50;;;;;14.60;78.26;101380.22;4990362;28;47435;-70
2021/09/25 02:24:40;;;;;;;;;25.25;20.75;;;;;14.58;78.61;101386.53;4981950;28;45491;-69
2021/09/25 02:27:05;;;;;;;;;20.00;19.00;;;;;14.48;78.26;101372.88;4994416;28;45445;-69
2021/09/25 02:29:31;;;;;;;;;23.00;20.75;;;;;14.53;78.37;101380.59;4987708;28;45550;-69
2021/09/25 02:31:56;;;;;;;;;18.75;14.75;;;;;14.51;78.43;101378.03;4983360;28;46156;-70
2021/09/25 02:34:22;;;;;;;;;21.25;17.75;;;;;14.48;78.45;101385.25;4994221;28;45426;-70
2021/09/25 02:36:47;;;;;;;;;19.25;17.50;;;;;14.43;78.47;101377.50;4979579;28;45522;-69
2021/09/25 02:39:13;;;;;;;;;21.00;18.00;;;;;14.45;78.51;101383.56;4991620;28;45273;-70
2021/09/25 02:41:38;;;;;;;;;26.00;19.00;;;;;14.43;78.35;101384.59;4986839;28;47484;-70
2021/09/25 02:44:03;;;;;;;;;22.00;17.00;;;;;14.42;78.46;101383.75;4981888;28;45864;-70
2021/09/25 02:46:29;;;;;;;;;19.50;17.75;;;;;14.39;78.62;101381.22;4982211;28;45290;-69
2021/09/25 02:48:54;;;;;;;;;23.25;19.50;;;;;14.38;78.54;101373.38;4989161;28;45548;-70
2021/09/25 02:51:20;;;;;;;;;19.00;17.50;;;;;14.37;78.48;101372.53;4991909;28;46279;-69
2021/09/25 02:53:45;;;;;;;;;18.25;16.25;;;;;14.38;78.53;101370.75;4990823;28;45280;-69
2021/09/25 02:56:11;;;;;;;;;21.50;17.25;;;;;14.36;78.55;101378.75;4986363;28;45357;-69
2021/09/25 02:58:37;;;;;;;;;15.25;14.50;;;;;14.34;78.64;101368.22;4983572;28;45519;-70
2021/09/25 03:01:02;;;;;;;;;17.00;17.00;;;;;14.34;78.78;101372.66;4983003;28;46428;-70
2021/09/25 03:03:28;;;;;;;;;16.25;15.50;;;;;14.20;78.80;101346.91;4979260;28;45588;-69
2021/09/25 03:05:53;;;;;;;;;20.50;17.75;;;;;14.30;78.71;101365.81;4984842;28;45573;-69
2021/09/25 03:08:18;;;;;;;;;20.75;19.50;;;;;14.25;79.26;101358.13;4982026;28;45497;-69
2021/09/25 03:10:44;;;;;;;;;23.00;16.50;;;;;14.24;79.31;101361.66;4980792;28;46780;-69
2021/09/25 03:13:09;;;;;;;;;24.50;20.50;;;;;14.22;79.14;101355.63;4995149;28;47640;-69
2021/09/25 03:15:34;;;;;;;;;21.00;18.25;;;;;14.20;79.37;101365.41;4987350;28;45622;-69
2021/09/25 03:18:00;;;;;;;;;21.25;18.50;;;;;14.20;79.35;101368.06;4995006;28;45427;-69
2021/09/25 03:20:25;;;;;;;;;18.75;18.00;;;;;14.19;78.75;101361.03;4990964;28;54007;-69
2021/09/25 03:22:51;;;;;;;;;20.25;16.75;;;;;14.17;78.71;101357.63;4991396;28;45293;-69
2021/09/25 03:25:16;;;;;;;;;22.50;21.75;;;;;14.20;79.21;101368.06;4989432;28;45451;-69
2021/09/25 03:27:42;;;;;;;;;24.75;19.00;;;;;14.17;79.01;101365.56;4992126;28;45482;-69
2021/09/25 03:30:09;;;;;;;;;19.75;19.75;;;;;14.16;79.32;101355.91;4983850;28;46525;-69
2021/09/25 03:32:35;;;;;;;;;22.75;19.00;;;;;14.18;78.82;101358.47;4984103;28;45673;-69
2021/09/25 03:35:00;;;;;;;;;17.75;15.50;;;;;14.13;79.19;101349.91;4984186;28;45455;-69
2021/09/25 03:37:26;;;;;;;;;20.75;17.50;;;;;14.14;79.65;101351.63;4984448;28;45497;-69
2021/09/25 03:39:51;;;;;;;;;24.00;18.00;;;;;14.09;79.37;101350.06;4978599;28;50582;-69
2021/09/25 03:42:16;;;;;;;;;21.75;17.25;;;;;14.06;79.84;101341.44;4982581;28;45277;-69
2021/09/25 03:44:43;;;;;;;;;26.00;21.50;;;;;14.07;79.87;101341.34;5001989;28;45524;-69
2021/09/25 03:47:08;;;;;;;;;24.25;20.50;;;;;14.06;79.27;101341.44;4984134;28;45532;-69
2021/09/25 03:49:34;;;;;;;;;23.00;19.75;;;;;14.03;79.13;101344.19;4988500;28;47771;-69
2021/09/25 03:51:59;;;;;;;;;22.50;18.50;;;;;14.04;79.56;101345.91;4994277;28;45357;-69
2021/09/25 03:54:25;;;;;;;;;22.00;19.00;;;;;14.03;79.50;101349.47;4991030;28;45464;-69
2021/09/25 03:56:50;;;;;;;;;24.25;19.25;;;;;14.00;79.73;101355.78;4985049;28;45388;-69
2021/09/25 03:59:15;;;;;;;;;21.75;18.75;;;;;14.04;80.24;101351.19;4989199;28;45940;-69
2021/09/25 04:01:41;;;;;;;;;21.25;21.25;;;;;14.03;80.05;101347.69;4990408;28;45440;-69
2021/09/25 04:04:06;;;;;;;;;24.50;18.00;;;;;14.04;79.92;101356.47;4988757;28;45364;-69
2021/09/25 04:06:31;;;;;;;;;25.00;20.50;;;;;14.04;79.95;101362.66;4979570;28;58617;-69
2021/09/25 04:08:57;;;;;;;;;22.00;19.00;;;;;14.02;80.09;101355.72;4982600;28;46273;-69
2021/09/25 04:11:22;;;;;;;;;22.25;19.25;;;;;13.99;79.88;101348.78;4990457;28;45442;-69
2021/09/25 04:13:47;;;;;;;;;21.25;20.50;;;;;13.98;80.02;101351.50;4990178;28;45439;-69
2021/09/25 04:16:13;;;;;;;;;21.75;19.25;;;;;13.95;79.83;101349.88;4986986;28;45438;-69
2021/09/25 04:18:38;;;;;;;;;26.75;21.50;;;;;13.92;79.75;101349.16;4988695;28;45996;-69
2021/09/25 04:21:03;;;;;;;;;24.00;19.00;;;;;13.90;79.90;101353.66;4993305;28;45571;-69
2021/09/25 04:23:29;;;;;;;;;21.75;21.75;;;;;13.83;79.86;101343.38;4985974;28;45487;-69
2021/09/25 04:25:54;;;;;;;;;25.25;21.25;;;;;13.91;79.90;101339.50;4981185;28;45395;-69
2021/09/25 04:28:20;;;;;;;;;21.25;18.75;;;;;13.90;79.90;101346.59;4992894;28;45690;-69
2021/09/25 04:30:45;;;;;;;;;20.50;16.25;;;;;13.88;79.75;101351.06;4978801;28;45319;-69
2021/09/25 04:33:11;;;;;;;;;21.25;20.50;;;;;13.82;79.56;101340.78;4990990;28;45453;-69
2021/09/25 04:35:38;;;;;;;;;23.75;18.25;;;;;13.86;79.84;101346.78;4989974;28;45520;-69
2021/09/25 04:38:04;;;;;;;;;22.50;20.75;;;;;13.82;79.63;101346.91;4988859;28;45673;-69
2021/09/25 04:40:30;;;;;;;;;25.25;22.50;;;;;13.82;79.83;101346.06;4989952;28;45453;-69
2021/09/25 04:42:57;;;;;;;;;24.50;21.75;;;;;13.82;80.28;101346.06;4993003;28;45553;-69
2021/09/25 04:45:22;;;;;;;;;29.75;20.50;;;;;13.80;80.21;101340.00;4980134;28;45579;-69
2021/09/25 04:47:48;;;;;;;;;22.75;18.75;;;;;13.79;80.23;101338.31;4988123;28;46642;-69
2021/09/25 04:50:15;;;;;;;;;26.00;22.75;;;;;13.75;80.68;101331.44;4993440;28;45376;-69
2021/09/25 04:52:41;;;;;;;;;26.75;21.25;;;;;13.72;80.16;101335.06;4985928;28;45717;-69
2021/09/25 04:55:07;;;;;;;;;28.00;22.75;;;;;13.72;79.99;101340.34;4990294;28;45422;-69
2021/09/25 04:57:32;;;;;;;;;27.50;21.50;;;;;13.70;80.19;101336.94;4991614;28;46140;-69
2021/09/25 04:59:58;;;;;;;;;22.50;22.00;;;;;13.69;79.98;101331.72;4989476;28;45664;-69
2021/09/25 05:02:23;;;;;;;;;26.00;21.00;;;;;13.67;79.95;101333.56;4989975;28;45468;-69
2021/09/25 05:04:49;;;;;;;;;26.00;24.75;;;;;13.70;79.85;101342.22;4991584;28;45469;-70
2021/09/25 05:07:14;;;;;;;;;27.00;23.25;;;;;13.67;80.22;101341.50;4979610;28;46266;-69
2021/09/25 05:09:40;;;;;;;;;28.00;23.25;;;;;13.68;80.40;101349.38;4989339;28;45462;-69
2021/09/25 05:12:05;;;;;;;;;28.50;22.75;;;;;13.67;80.68;101333.56;4990760;28;45396;-69
2021/09/25 05:14:31;;;;;;;;;22.25;19.25;;;;;13.69;80.47;101337.03;4986657;28;45528;-69
2021/09/25 05:16:57;;;;;;;;;21.50;21.00;;;;;13.66;79.82;101334.50;4990545;28;45981;-69
2021/09/25 05:19:22;;;;;;;;;26.75;21.25;;;;;13.63;80.23;101337.31;4982159;28;45472;-69
2021/09/25 05:21:48;;;;;;;;;28.75;22.75;;;;;13.60;80.37;101340.94;4980971;28;45507;-69
2021/09/25 05:24:13;;;;;;;;;26.75;21.75;;;;;13.58;79.87;101332.22;4993580;28;45552;-69
2021/09/25 05:26:41;;;;;;;;;29.00;21.50;;;;;13.52;79.97;101329.84;4987097;28;45493;-69
2021/09/25 05:29:06;;;;;;;;;30.00;23.25;;;;;13.55;80.44;101338.50;4985877;28;45864;-69
2021/09/25 05:31:32;;;;;;;;;24.25;22.25;;;;;13.53;79.88;101328.94;4985664;28;45711;-69
2021/09/25 05:33:58;;;;;;;;;25.50;21.50;;;;;13.52;80.18;101328.09;4995599;28;45623;-69
2021/09/25 05:36:24;;;;;;;;;25.50;23.00;;;;;13.52;80.23;101333.38;4992842;28;46069;-69
2021/09/25 05:38:49;;;;;;;;;23.25;19.25;;;;;13.51;80.01;101339.56;4985773;28;45478;-69
2021/09/25 05:41:15;;;;;;;;;21.75;21.00;;;;;13.49;80.01;101324.72;4992046;28;45430;-69
2021/09/25 05:43:40;;;;;;;;;26.75;21.00;;;;;13.47;79.97;101327.44;4995949;28;45472;-69
2021/09/25 05:46:06;;;;;;;;;25.75;21.75;;;;;13.52;80.10;101329.84;4995552;28;46394;-69
2021/09/25 05:48:33;;;;;;;;;22.00;20.75;;;;;13.49;80.09;101332.66;4983653;28;45446;-69
2021/09/25 05:50:59;;;;;;;;;25.00;20.75;;;;;13.55;80.01;101335.00;4987483;28;45541;-69
2021/09/25 05:53:25;;;;;;;;;21.00;17.75;;;;;13.52;79.81;101327.19;4984159;28;45471;-69
2021/09/25 05:55:50;;;;;;;;;23.50;20.75;;;;;13.51;79.95;101329.00;4982172;28;46378;-69
2021/09/25 05:58:15;;;;;;;;;21.25;21.25;;;;;13.55;79.95;101333.22;4991943;28;45416;-69
2021/09/25 06:00:41;;;;;;;;;21.00;20.75;;;;;13.58;79.78;101337.50;4993804;28;45458;-69
2021/09/25 06:03:06;;;;;;;;;26.75;23.25;;;;;13.57;79.69;101327.84;4992565;28;50997;-69
2021/09/25 06:05:32;;;;;;;;;22.75;20.75;;;;;13.62;79.64;101344.34;4991835;28;45486;-69
2021/09/25 06:07:57;;;;;;;;;23.25;19.50;;;;;13.65;79.90;101335.44;4991319;28;45427;-69
2021/09/25 06:10:23;;;;;;;;;25.50;22.50;;;;;13.70;79.99;101330.81;4986588;28;45408;-69
2021/09/25 06:12:48;;;;;;;;;29.75;22.75;;;;;13.74;80.29;101338.50;4994922;28;45376;-69
2021/09/25 06:15:14;;;;;;;;;23.00;20.00;;;;;13.76;79.74;101341.94;4981186;28;46257;-69
2021/09/25 06:17:41;;;;;;;;;23.50;17.75;;;;;13.78;79.97;101328.66;4992128;28;45503;-69
2021/09/25 06:20:08;;;;;;;;;26.75;21.00;;;;;13.86;79.89;101341.50;4991671;28;45415;-69
2021/09/25 06:22:33;;;;;;;;;28.50;23.75;;;;;13.86;79.86;101345.00;4993174;28;45534;-69
2021/09/25 06:24:58;;;;;;;;;26.75;18.25;;;;;13.94;79.99;101352.56;4991678;28;54107;-69
2021/09/25 06:27:23;;;;;;;;;27.25;25.00;;;;;13.98;80.00;101347.06;4989041;28;45321;-69
2021/09/25 06:29:49;;;;;;;;;29.25;27.75;;;;;14.05;80.24;101348.50;4991829;28;45404;-69
2021/09/25 06:32:14;;;;;;;;;30.50;24.50;;;;;14.13;80.46;101350.75;4989332;28;45388;-69
2021/09/25 06:34:40;;;;;;;;;35.75;26.25;;;;;14.07;80.36;101324.63;4980721;28;46285;-69
2021/09/25 06:37:05;;;;;;;;;30.75;25.00;;;;;14.31;80.38;101347.25;4996337;28;45528;-69
2021/09/25 06:39:30;;;;;;;;;27.00;24.75;;;;;14.34;80.15;101335.66;4979219;28;45290;-69
2021/09/25 06:41:56;;;;;;;;;32.75;27.50;;;;;14.46;80.06;101339.47;4990392;28;45602;-69
2021/09/25 06:44:21;;;;;;;;;33.75;29.25;;;;;14.54;80.12;101338.19;4980981;28;47785;-69
2021/09/25 06:46:47;;;;;;;;;36.75;28.50;;;;;14.64;80.43;101343.03;4991260;28;45455;-69
2021/09/25 06:49:12;;;;;;;;;33.75;27.75;;;;;14.71;80.58;101331.19;4990902;28;45455;-69
2021/09/25 06:51:37;;;;;;;;;29.25;26.50;;;;;14.79;80.34;101335.19;4987033;28;45395;-69
2021/09/25 06:54:03;;;;;;;;;35.75;32.00;;;;;14.87;80.33;101319.75;4991579;28;46403;-69
2021/09/25 06:56:28;;;;;;;;;38.25;31.75;;;;;14.98;80.15;101323.63;4987260;28;45550;-69
2021/09/25 06:58:53;;;;;;;;;36.25;29.00;;;;;15.09;80.31;101327.47;4984722;28;45243;-69
2021/09/25 07:01:19;;;;;;;;;35.00;30.00;;;;;15.18;79.81;101317.31;4987160;28;45678;-69
2021/09/25 07:03:44;;;;;;;;;35.50;27.25;;;;;15.33;79.77;101322.63;4982313;28;47292;-69
2021/09/25 07:06:09;;;;;;;;;34.50;31.00;;;;;15.46;79.53;101330.81;4985308;28;49951;-71
2021/09/25 07:08:35;;;;;;;;;38.00;32.25;;;;;15.59;79.21;101320.38;4984541;28;46832;-71
2021/09/25 07:11:00;;;;;;;;;29.00;26.25;;;;;15.73;79.03;101309.06;4992657;28;45515;-70
2021/09/25 07:13:25;;;;;;;;;35.25;29.00;;;;;15.90;79.18;101301.88;4983655;28;46209;-70
2021/09/25 07:15:51;;;;;;;;;35.50;27.75;;;;;16.20;78.54;101308.19;4982405;28;45527;-72
2021/09/25 07:18:16;;;;;;;;;35.25;27.75;;;;;16.81;78.18;101312.56;4994036;28;45495;-71
2021/09/25 07:20:43;;;;;;;;;34.25;29.00;;;;;17.71;77.02;101315.84;4986601;28;45525;-71
2021/09/25 07:23:09;;;;;;;;;34.25;30.50;;;;;18.48;74.16;101317.03;4988420;28;45602;-71
2021/09/25 07:25:36;;;;;;;;;34.50;30.50;;;;;18.54;72.21;101313.13;4989893;28;45704;-71
2021/09/25 07:28:04;;;;;;;;;30.50;27.50;;;;;18.33;72.11;101314.56;4990845;28;45601;-71
2021/09/25 07:30:29;;;;;;;;;34.00;31.25;;;;;18.23;72.40;101314.31;4977899;28;45656;-71
2021/09/25 07:32:57;;;;;;;;;32.00;30.25;;;;;18.18;72.73;101303.13;4987725;28;46568;-71
2021/09/25 07:35:23;;;;;;;;;31.25;25.25;;;;;18.26;72.02;101301.63;4987678;28;45897;-71
2021/09/25 07:37:49;;;;;;;;;30.75;24.75;;;;;18.47;72.10;101309.16;4991307;28;45488;-71
2021/09/25 07:40:14;;;;;;;;;34.00;31.50;;;;;18.62;71.73;101304.59;4990875;28;45456;-71
2021/09/25 07:42:39;;;;;;;;;36.75;31.00;;;;;18.96;70.96;101309.38;4992733;28;45405;-71
2021/09/25 07:45:07;;;;;;;;;33.50;28.75;;;;;19.37;70.44;101299.41;4981824;28;45453;-72
2021/09/25 07:47:33;;;;;;;;;35.50;30.00;;;;;20.55;69.53;101295.19;4992188;28;45612;-71
2021/09/25 07:49:58;;;;;;;;;29.00;27.00;;;;;21.39;67.28;101292.31;4989520;28;46604;-71
2021/09/25 07:52:23;;;;;;;;;36.25;31.25;;;;;21.55;66.01;101290.97;4987178;28;47157;-71
2021/09/25 07:54:49;;;;;;;;;44.00;37.00;;;;;22.00;65.48;101285.53;4991333;28;45682;-72
2021/09/25 07:57:14;;;;;;;;;32.75;29.00;;;;;23.13;64.00;101284.03;4987113;28;46682;-71
2021/09/25 07:59:39;;;;;;;;;35.75;27.25;;;;;24.51;62.12;101287.72;4983420;28;45564;-71
2021/09/25 08:02:05;;;;;;;;;29.50;24.75;;;;;26.12;59.62;101286.53;4990539;28;46171;-70
2021/09/25 08:04:30;;;;;;;;;25.75;22.00;;;;;26.74;57.05;101287.44;4982888;28;45522;-71
2021/09/25 08:06:55;;;;;;;;;27.00;25.00;;;;;27.25;55.73;101280.34;4988667;28;45309;-70
2021/09/25 08:09:23;;;;;;;;;26.50;23.50;;;;;28.56;55.07;101278.00;4987073;28;45676;-70
2021/09/25 08:11:48;;;;;;;;;25.75;25.25;;;;;29.81;51.96;101292.69;4983347;28;45816;-70
2021/09/25 08:14:13;;;;;;;;;32.00;26.25;;;;;30.48;50.14;101282.06;4986867;28;45947;-70
2021/09/25 08:16:39;;;;;;;;;28.25;23.25;;;;;31.59;50.18;101283.13;4989193;28;45467;-70
2021/09/25 08:19:04;;;;;;;;;28.50;23.50;;;;;33.12;47.28;101280.78;4987750;28;45553;-70
2021/09/25 08:21:30;;;;;;;;;27.50;23.00;;;;;34.48;46.02;101292.59;4982752;28;45899;-70
2021/09/25 08:23:55;;;;;;;;;24.75;24.00;;;;;35.33;42.46;101297.31;4977510;28;45487;-70
2021/09/25 08:26:21;;;;;;;;;27.25;23.75;;;;;35.34;41.26;101299.81;4986209;28;46095;-70
2021/09/25 08:28:46;;;;;;;;;24.25;22.50;;;;;36.01;41.10;101297.66;4983302;28;45662;-70
2021/09/25 08:31:11;;;;;;;;;24.50;22.75;;;;;36.58;38.60;101299.34;4988622;28;46904;-70
2021/09/25 08:33:37;;;;;;;;;28.00;22.50;;;;;37.37;38.02;101291.41;4981070;28;45543;-70
2021/09/25 08:36:02;;;;;;;;;27.25;21.75;;;;;37.29;36.35;101291.72;4986308;28;45490;-71
2021/09/25 08:38:28;;;;;;;;;24.75;22.25;;;;;36.78;36.44;101287.38;4983300;28;45666;-71
2021/09/25 08:40:54;;;;;;;;;23.50;21.25;;;;;35.65;36.23;101279.13;4982887;28;45682;-71
2021/09/25 08:43:24;;;;;;;;;24.50;20.25;;;;;33.83;36.98;101280.50;4986950;28;45716;-71
2021/09/25 08:45:55;;;;;;;;;25.25;23.50;;;;;32.06;39.18;101284.50;4987634;28;45452;-70
2021/09/25 08:48:21;;;;;;;;;24.75;23.25;;;;;30.92;39.65;101287.59;4984715;28;45594;-71
2021/09/25 08:50:46;;;;;;;;;27.25;21.50;;;;;30.06;40.95;101282.53;4984430;28;45710;-72
2021/09/25 08:53:11;;;;;;;;;21.75;19.75;;;;;29.59;41.72;101286.19;4983797;28;50433;-71
2021/09/25 08:55:37;;;;;;;;;28.00;24.50;;;;;29.15;42.18;101273.16;4982653;28;46120;-71
2021/09/25 08:58:02;;;;;;;;;23.00;22.25;;;;;29.19;42.77;101287.19;4984515;28;45514;-71
2021/09/25 09:00:38;;;;;;;;;21.75;19.75;;;;;29.94;43.41;101284.81;4983669;28;45839;-71
2021/09/25 09:03:22;;;;;;;;;27.25;23.50;;;;;31.77;42.03;101282.69;4978829;28;46215;-71
2021/09/25 09:05:52;;;;;;;;;31.25;27.25;;;;;33.91;39.09;101280.28;4986489;28;45500;-71
2021/09/25 09:08:18;;;;;;;;;32.25;27.50;;;;;36.16;37.66;101287.25;4979223;28;45557;-71
2021/09/25 09:10:43;;;;;;;;;25.50;21.25;;;;;38.21;36.31;101280.56;4982667;28;46476;-71
2021/09/25 09:13:08;;;;;;;;;24.75;22.00;;;;;39.96;34.18;101290.53;4979683;28;51324;-71
2021/09/25 09:15:37;;;;;;;;;19.75;17.00;;;;;41.54;31.40;101292.97;4990578;28;45753;-71
2021/09/25 09:18:03;;;;;;;;;22.00;20.25;;;;;42.66;29.88;101299.59;4983815;28;45556;-71
2021/09/25 09:20:30;;;;;;;;;19.50;18.00;;;;;42.88;28.89;101288.38;4984375;28;46795;-70
2021/09/25 09:23:19;;;;;;;;;23.75;19.00;;;;;41.28;28.92;101297.31;4985525;28;45495;-70
2021/09/25 09:25:44;;;;;;;;;23.75;20.50;;;;;39.27;29.77;101297.97;4987044;28;45617;-70
2021/09/25 09:28:20;;;;;;;;;19.25;18.50;;;;;37.51;31.16;101294.84;4985124;28;46539;-70
2021/09/25 09:30:51;;;;;;;;;19.75;18.50;;;;;36.38;32.20;101303.28;4990447;28;45515;-70
2021/09/25 09:33:51;;;;;;;;;19.75;16.25;;;;;37.99;32.80;101296.72;4987955;28;45514;-70
2021/09/25 09:36:37;;;;;;;;;23.50;21.25;;;;;39.44;32.30;101296.09;4978053;28;45500;-70
2021/09/25 09:39:14;;;;;;;;;20.75;20.75;;;;;40.04;30.12;101290.09;4990796;28;45560;-70
2021/09/25 09:41:58;;;;;;;;;21.75;19.25;;;;;40.30;30.45;101283.16;4988862;28;46507;-70
2021/09/25 09:44:26;;;;;;;;;27.75;26.25;;;;;40.42;29.98;101270.13;4988533;28;45692;-70
2021/09/25 09:46:55;;;;;;;;;29.25;26.25;;;;;40.28;31.57;101270.72;4989025;28;45603;-70
2021/09/25 09:49:21;;;;;;;;;21.25;18.25;;;;;39.89;29.76;101265.09;4985310;28;45846;-71
2021/09/25 09:51:51;;;;;;;;;22.00;20.00;;;;;39.79;29.25;101249.22;4983242;28;46673;-71
2021/09/25 09:54:21;;;;;;;;;23.25;20.25;;;;;39.82;29.67;101242.38;4985541;28;45663;-72
2021/09/25 09:56:48;;;;;;;;;23.50;20.50;;;;;39.83;29.88;101252.28;4983760;28;45563;-70
2021/09/25 09:59:14;;;;;;;;;25.00;21.25;;;;;39.61;29.39;101246.63;4989284;28;45603;-70
2021/09/25 10:01:42;;;;;;;;;21.50;20.25;;;;;39.49;29.19;101263.19;4991533;28;45577;-70
2021/09/25 10:04:08;;;;;;;;;23.75;19.25;;;;;39.41;30.37;101264.41;4978400;28;45779;-71
2021/09/25 10:06:36;;;;;;;;;17.50;16.25;;;;;39.40;29.83;101264.66;4990651;28;45432;-70
2021/09/25 10:09:06;;;;;;;;;17.00;15.50;;;;;39.36;29.86;101263.47;4989985;28;45435;-71
2021/09/25 10:11:33;;;;;;;;;21.25;18.75;;;;;39.46;29.21;101249.94;4990758;28;45535;-71
2021/09/25 10:13:59;;;;;;;;;16.25;16.00;;;;;39.56;29.86;101244.63;4991706;28;45737;-72
2021/09/25 10:16:25;;;;;;;;;18.25;17.00;;;;;39.62;28.66;101242.81;4989847;28;47030;-72
2021/09/25 10:18:51;;;;;;;;;18.25;17.50;;;;;39.62;29.52;101251.06;4989120;28;45738;-71
2021/09/25 10:21:18;;;;;;;;;16.75;16.25;;;;;39.47;28.92;101245.25;4986229;28;45865;-72
2021/09/25 10:23:57;;;;;;;;;18.75;16.25;;;;;39.42;28.82;101257.03;4983800;28;45665;-72
2021/09/25 10:26:23;;;;;;;;;19.00;16.50;;;;;39.04;28.58;101261.13;4988327;28;47121;-72
2021/09/25 10:28:58;;;;;;;;;28.00;26.75;;;;;38.31;29.61;101254.22;4992772;28;45550;-72
2021/09/25 10:31:25;;;;;;;;;21.00;19.00;;;;;37.68;29.55;101251.97;4992792;28;46295;-72
2021/09/25 10:34:14;;;;;;;;;17.25;14.75;;;;;37.00;30.15;101253.03;4993738;28;45710;-72
2021/09/25 10:36:47;;;;;;;;;16.75;14.50;;;;;36.36;30.74;101248.78;5006989;28;45440;-71
2021/09/25 10:39:26;;;;;;;;;13.25;13.25;;;;;35.75;32.09;101252.13;4995402;28;45529;-71
2021/09/25 10:42:44;;;;;;;;;17.75;16.75;;;;;35.34;32.01;101250.63;4985786;28;46400;-71
2021/09/25 10:45:25;;;;;;;;;15.50;15.50;;;;;34.98;32.06;101252.03;4976649;28;45501;-70
2021/09/25 10:48:17;;;;;;;;;13.75;13.50;;;;;34.83;32.83;101235.03;4986439;28;45853;-71
2021/09/25 10:50:57;;;;;;;;;17.75;14.75;;;;;34.75;33.40;101229.78;4987237;28;45368;-71
2021/09/25 10:53:26;;;;;;;;;14.50;13.50;;;;;34.61;33.06;101228.94;4989914;28;46334;-71
2021/09/25 10:55:57;;;;;;;;;15.75;14.25;;;;;34.31;33.25;101222.25;4986453;28;46070;-71
2021/09/25 10:58:23;;;;;;;;;14.25;12.75;;;;;33.93;33.73;101223.72;4990194;28;45827;-71
2021/09/25 11:00:54;;;;;;;;;14.33;14.33;;;;;33.69;34.12;101221.53;4990276;28;45696;-71
2021/09/25 11:03:42;;;;;;;;;18.50;17.25;;;;;33.49;34.56;101216.84;4989613;28;45512;-70
2021/09/25 11:06:18;;;;;;;;;14.25;13.00;;;;;33.26;35.33;101213.63;4990449;28;45993;-71
2021/09/25 11:09:05;;;;;;;;;16.00;15.25;;;;;33.19;35.20;101212.72;4987703;28;45710;-71